createdAt,value
2023-03-26T00:02:05.141Z,8.10
2023-03-26T00:04:35.066Z,8.10
2023-03-26T00:07:03.255Z,8.20
2023-03-26T00:09:31.313Z,8.20
2023-03-26T00:11:59.336Z,8.10
2023-03-26T00:14:27.937Z,8.20
2023-03-26T00:16:56.007Z,8.20
2023-03-26T00:19:24.148Z,8.20
2023-03-26T00:21:53.807Z,8.20
2023-03-26T00:24:21.831Z,8.20
2023-03-26T00:26:54.428Z,8.20
2023-03-26T00:29:24.176Z,8.30
2023-03-26T00:31:52.206Z,8.20
2023-03-26T00:34:20.293Z,8.20
2023-03-26T00:36:48.378Z,8.20
2023-03-26T00:39:16.640Z,8.20
2023-03-26T00:41:45.482Z,8.20
2023-03-26T00:44:13.615Z,8.20
2023-03-26T00:46:41.953Z,8.30
2023-03-26T00:49:11.943Z,8.30
2023-03-26T00:51:40.461Z,8.20
2023-03-26T00:54:09.572Z,8.20
2023-03-26T00:56:38.164Z,8.20
2023-03-26T00:59:06.224Z,8.20
2023-03-26T01:01:34.377Z,8.30
2023-03-26T01:04:25.437Z,8.30
2023-03-26T01:06:53.657Z,8.30
2023-03-26T01:09:22.836Z,8.30
2023-03-26T01:11:50.991Z,8.30
2023-03-26T01:14:24.910Z,8.30
2023-03-26T01:16:55.038Z,8.30
2023-03-26T01:19:30.511Z,8.30
2023-03-26T01:21:59.340Z,8.30
2023-03-26T01:24:27.442Z,8.40
2023-03-26T01:27:01.217Z,8.40
2023-03-26T01:29:29.221Z,8.30
2023-03-26T01:34:44.246Z,8.40
2023-03-26T01:37:19.054Z,8.50
2023-03-26T01:39:58.444Z,8.50
2023-03-26T01:42:32.518Z,8.50
2023-03-26T01:45:16.691Z,8.50
2023-03-26T01:47:45.366Z,8.40
2023-03-26T01:50:13.862Z,8.40
2023-03-26T01:52:42.030Z,8.40
2023-03-26T01:55:14.008Z,8.30
2023-03-26T01:58:00.875Z,8.30
2023-03-26T02:00:30.933Z,8.20
2023-03-26T02:03:21.056Z,8.20
2023-03-26T02:05:55.730Z,8.10
2023-03-26T02:08:47.836Z,8.10
2023-03-26T02:11:16.548Z,8.10
2023-03-26T02:13:46.152Z,8.10
2023-03-26T02:16:17.518Z,8.10
2023-03-26T02:18:56.401Z,8.00
2023-03-26T02:21:29.371Z,8.00
2023-03-26T02:24:04.398Z,7.90
2023-03-26T02:26:38.976Z,7.80
2023-03-26T02:29:11.171Z,7.80
2023-03-26T02:31:41.550Z,7.80
2023-03-26T02:34:09.583Z,7.90
2023-03-26T02:36:39.871Z,7.90
2023-03-26T02:39:09.052Z,7.90
2023-03-26T02:41:39.632Z,7.90
2023-03-26T02:44:10.804Z,7.90
2023-03-26T02:46:57.396Z,7.80
2023-03-26T02:49:44.230Z,7.80
2023-03-26T02:52:19.778Z,7.70
2023-03-26T02:54:50.346Z,7.70
2023-03-26T02:57:20.988Z,7.60
2023-03-26T02:59:54.757Z,7.50
2023-03-26T03:02:39.963Z,7.50
2023-03-26T03:05:35.535Z,7.50
2023-03-26T03:08:29.354Z,7.50
2023-03-26T03:11:14.845Z,7.40
2023-03-26T03:13:49.483Z,7.30
2023-03-26T03:16:21.718Z,7.30
2023-03-26T03:18:56.917Z,7.30
2023-03-26T03:21:33.946Z,7.30
2023-03-26T03:24:02.240Z,7.30
2023-03-26T03:26:35.477Z,7.20
2023-03-26T03:29:15.093Z,7.20
2023-03-26T03:31:43.340Z,7.10
2023-03-26T03:34:23.367Z,7.10
2023-03-26T03:36:52.491Z,7.00
2023-03-26T03:39:37.468Z,7.00
2023-03-26T03:42:06.065Z,6.80
2023-03-26T03:44:34.997Z,6.80
2023-03-26T03:47:08.940Z,6.70
2023-03-26T03:49:37.286Z,6.40
2023-03-26T03:52:06.312Z,6.30
2023-03-26T03:54:40.381Z,6.10
2023-03-26T03:57:13.946Z,6.10
2023-03-26T03:59:54.225Z,6.10
2023-03-26T04:02:27.613Z,6.20
2023-03-26T04:05:00.221Z,6.20
2023-03-26T04:07:32.555Z,6.30
2023-03-26T04:10:08.024Z,6.40
2023-03-26T04:12:55.396Z,6.50
2023-03-26T04:15:39.385Z,6.50
2023-03-26T04:18:11.671Z,6.60
2023-03-26T04:20:47.621Z,6.70
2023-03-26T04:23:22.346Z,6.70
2023-03-26T04:25:56.177Z,6.70
2023-03-26T04:28:43.583Z,6.70
2023-03-26T04:31:25.863Z,6.70
2023-03-26T04:33:57.697Z,6.70
2023-03-26T04:36:28.658Z,6.70
2023-03-26T04:38:59.641Z,6.70
2023-03-26T04:41:48.244Z,6.70
2023-03-26T04:44:23.763Z,6.70
2023-03-26T04:47:03.110Z,6.70
2023-03-26T04:49:51.181Z,6.70
2023-03-26T04:52:19.874Z,6.60
2023-03-26T04:55:26.165Z,6.70
2023-03-26T04:58:06.879Z,6.70
2023-03-26T05:00:57.453Z,6.70
2023-03-26T05:03:26.953Z,6.80
2023-03-26T05:05:55.743Z,6.70
2023-03-26T05:08:24.032Z,6.70
2023-03-26T05:10:52.320Z,6.70
2023-03-26T05:13:27.780Z,6.70
2023-03-26T05:15:57.790Z,6.80
2023-03-26T05:18:45.828Z,6.80
2023-03-26T05:21:14.940Z,6.80
2023-03-26T05:23:43.364Z,6.90
2023-03-26T05:26:23.305Z,6.90
2023-03-26T05:28:52.693Z,6.90
2023-03-26T05:31:47.322Z,6.90
2023-03-26T05:34:15.757Z,7.00
2023-03-26T05:36:43.917Z,7.00
2023-03-26T05:39:31.214Z,7.00
2023-03-26T05:42:02.017Z,7.00
2023-03-26T05:44:43.528Z,7.00
2023-03-26T05:47:22.549Z,7.10
2023-03-26T05:49:50.663Z,7.10
2023-03-26T05:52:20.321Z,7.10
2023-03-26T05:55:07.928Z,7.10
2023-03-26T05:57:55.436Z,7.10
2023-03-26T06:00:46.485Z,7.10
2023-03-26T06:03:17.776Z,7.20
2023-03-26T06:06:07.841Z,7.20
2023-03-26T06:09:01.124Z,7.20
2023-03-26T06:11:31.211Z,7.30
2023-03-26T06:13:59.821Z,7.30
2023-03-26T06:16:28.510Z,7.40
2023-03-26T06:19:11.133Z,7.50
2023-03-26T06:21:58.764Z,7.50
2023-03-26T06:24:32.203Z,7.50
2023-03-26T06:27:06.029Z,7.60
2023-03-26T06:29:36.781Z,7.60
2023-03-26T06:32:20.441Z,7.60
2023-03-26T06:35:09.241Z,7.60
2023-03-26T06:37:37.563Z,7.70
2023-03-26T06:40:06.404Z,7.70
2023-03-26T06:43:07.707Z,7.80
2023-03-26T06:46:03.734Z,7.80
2023-03-26T06:48:55.072Z,7.90
2023-03-26T06:51:44.868Z,8.00
2023-03-26T06:54:48.442Z,8.00
2023-03-26T06:57:49.560Z,8.00
2023-03-26T07:00:36.232Z,8.10
2023-03-26T07:03:23.607Z,8.10
2023-03-26T07:06:10.116Z,8.20
2023-03-26T07:08:58.598Z,8.20
2023-03-26T07:11:49.710Z,8.20
2023-03-26T07:14:58.419Z,8.60
2023-03-26T07:17:59.747Z,8.70
2023-03-26T07:20:34.216Z,8.80
2023-03-26T07:23:02.481Z,8.90
2023-03-26T07:25:49.545Z,8.90
2023-03-26T07:28:40.807Z,9.00
2023-03-26T07:31:35.954Z,9.00
2023-03-26T07:34:35.110Z,8.90
2023-03-26T07:37:34.551Z,9.00
2023-03-26T07:40:50.237Z,9.00
2023-03-26T07:43:39.187Z,9.00
2023-03-26T07:46:33.263Z,8.90
2023-03-26T07:49:14.194Z,8.80
2023-03-26T07:52:05.466Z,8.80
2023-03-26T07:54:52.271Z,8.70
2023-03-26T07:57:51.926Z,8.70
2023-03-26T08:00:58.398Z,8.70
2023-03-26T08:03:30.035Z,8.70
2023-03-26T08:06:29.040Z,8.80
2023-03-26T08:09:27.245Z,8.80
2023-03-26T08:12:24.271Z,8.80
2023-03-26T08:14:59.182Z,8.90
2023-03-26T08:17:59.949Z,8.90
2023-03-26T08:20:35.579Z,8.90
2023-03-26T08:23:14.786Z,8.80
2023-03-26T08:25:43.578Z,8.80
2023-03-26T08:28:31.186Z,8.70
2023-03-26T08:30:59.457Z,8.70
2023-03-26T08:33:28.936Z,8.70
2023-03-26T08:35:57.582Z,8.60
2023-03-26T08:38:25.653Z,8.60
2023-03-26T08:41:13.066Z,8.50
2023-03-26T08:43:47.215Z,8.50
2023-03-26T08:46:21.869Z,8.40
2023-03-26T08:48:58.273Z,8.40
2023-03-26T08:51:45.172Z,8.30
2023-03-26T08:54:19.309Z,8.30
2023-03-26T08:57:00.779Z,8.30
2023-03-26T08:59:39.629Z,8.30
2023-03-26T09:02:16.653Z,8.30
2023-03-26T09:05:08.314Z,8.30
2023-03-26T09:07:36.579Z,8.20
2023-03-26T09:10:23.177Z,8.20
2023-03-26T09:13:20.259Z,8.20
2023-03-26T09:16:07.756Z,8.20
2023-03-26T09:18:54.987Z,8.20
2023-03-26T09:21:33.395Z,8.20
2023-03-26T09:24:20.789Z,8.20
2023-03-26T09:27:00.567Z,8.20
2023-03-26T09:29:33.037Z,8.20
2023-03-26T09:32:13.520Z,8.30
2023-03-26T09:35:04.775Z,8.30
2023-03-26T09:37:35.547Z,8.30
2023-03-26T09:40:39.296Z,8.30
2023-03-26T09:43:26.039Z,8.30
2023-03-26T09:46:13.048Z,8.30
2023-03-26T09:48:51.363Z,8.30
2023-03-26T09:51:34.520Z,8.30
2023-03-26T09:54:11.713Z,8.20
2023-03-26T09:56:43.998Z,8.20
2023-03-26T09:59:22.584Z,8.10
2023-03-26T10:02:10.879Z,8.10
2023-03-26T10:04:41.847Z,8.10
2023-03-26T10:07:31.500Z,8.10
2023-03-26T10:10:05.395Z,8.10
2023-03-26T10:12:38.296Z,8.10
2023-03-26T10:15:25.223Z,8.10
2023-03-26T10:18:29.256Z,8.10
2023-03-26T10:20:58.252Z,8.00
2023-03-26T10:23:35.285Z,7.90
2023-03-26T10:26:34.135Z,7.90
2023-03-26T10:29:19.809Z,7.90
2023-03-26T10:32:06.713Z,7.90
2023-03-26T10:34:49.677Z,7.90
2023-03-26T10:37:17.787Z,7.90
2023-03-26T10:39:52.162Z,7.90
2023-03-26T10:42:38.981Z,7.90
2023-03-26T10:45:13.440Z,8.00
2023-03-26T10:47:50.604Z,8.10
2023-03-26T10:50:22.967Z,8.10
2023-03-26T10:52:58.494Z,8.10
2023-03-26T10:55:30.173Z,8.10
2023-03-26T10:58:04.309Z,8.10
2023-03-26T11:00:35.648Z,8.10
2023-03-26T11:03:09.860Z,8.10
2023-03-26T11:05:49.946Z,8.00
2023-03-26T11:08:17.998Z,8.00
2023-03-26T11:10:51.391Z,8.00
2023-03-26T11:13:24.196Z,8.00
2023-03-26T11:16:05.831Z,8.00
2023-03-26T11:18:33.895Z,8.10
2023-03-26T11:21:25.291Z,8.00
2023-03-26T11:24:08.345Z,8.10
2023-03-26T11:26:46.278Z,8.10
2023-03-26T11:29:36.873Z,8.10
2023-03-26T11:32:04.933Z,8.10
2023-03-26T11:34:38.850Z,8.10
2023-03-26T11:37:09.669Z,8.10
2023-03-26T11:39:49.284Z,8.10
2023-03-26T11:42:18.686Z,8.20
2023-03-26T11:44:54.951Z,8.20
2023-03-26T11:47:35.383Z,8.20
2023-03-26T11:50:04.858Z,8.10
2023-03-26T11:52:33.128Z,8.10
2023-03-26T11:55:01.257Z,8.00
2023-03-26T11:57:34.372Z,8.10
2023-03-26T12:00:17.524Z,8.10
2023-03-26T12:02:46.592Z,8.10
2023-03-26T12:05:14.841Z,8.20
2023-03-26T12:07:47.871Z,8.30
2023-03-26T12:10:48.598Z,8.40
2023-03-26T12:13:40.152Z,8.50
2023-03-26T12:16:18.843Z,8.60
2023-03-26T12:18:48.182Z,8.60
2023-03-26T12:21:20.446Z,8.70
2023-03-26T12:24:06.387Z,8.70
2023-03-26T12:26:42.537Z,8.80
2023-03-26T12:29:12.280Z,9.10
2023-03-26T12:31:57.707Z,9.40
2023-03-26T12:34:32.078Z,9.90
2023-03-26T12:37:02.735Z,10.60
2023-03-26T12:40:07.726Z,11.30
2023-03-26T12:44:50.586Z,11.90
2023-03-26T12:45:24.862Z,12.20
2023-03-26T12:48:01.705Z,12.20
2023-03-26T12:50:44.052Z,12.60
2023-03-26T12:53:21.335Z,12.70
2023-03-26T12:55:52.466Z,12.80
2023-03-26T12:58:30.429Z,13.00
2023-03-26T13:01:03.924Z,13.40
2023-03-26T13:03:43.144Z,13.60
2023-03-26T13:06:24.181Z,13.70
2023-03-26T13:08:52.197Z,14.00
2023-03-26T13:11:24.392Z,14.00
2023-03-26T13:13:59.587Z,13.80
2023-03-26T13:16:46.537Z,13.80
2023-03-26T13:19:33.917Z,14.00
2023-03-26T13:22:20.518Z,13.70
2023-03-26T13:24:59.427Z,13.50
2023-03-26T13:27:46.006Z,13.20
2023-03-26T13:30:33.153Z,12.80
2023-03-26T13:33:16.318Z,12.80
2023-03-26T13:35:51.190Z,12.90
2023-03-26T13:38:38.165Z,12.80
2023-03-26T13:41:14.840Z,12.60
2023-03-26T13:43:42.853Z,12.50
2023-03-26T13:46:21.192Z,12.40
2023-03-26T13:48:54.305Z,12.40
2023-03-26T13:51:30.141Z,12.60
2023-03-26T13:54:01.274Z,12.70
2023-03-26T13:56:34.780Z,12.70
2023-03-26T13:59:04.895Z,12.50
2023-03-26T14:01:36.403Z,12.30
2023-03-26T14:04:19.060Z,12.20
2023-03-26T14:07:08.530Z,12.00
2023-03-26T14:09:39.353Z,12.10
2023-03-26T14:12:21.351Z,12.20
2023-03-26T14:14:49.655Z,12.50
2023-03-26T14:17:23.593Z,13.10
2023-03-26T14:19:54.815Z,13.40
2023-03-26T14:22:39.881Z,13.70
2023-03-26T14:25:18.248Z,14.00
2023-03-26T14:27:52.429Z,14.20
2023-03-26T14:30:23.839Z,14.30
2023-03-26T14:33:11.659Z,14.70
2023-03-26T14:35:53.450Z,14.80
2023-03-26T14:38:36.796Z,15.10
2023-03-26T14:41:04.919Z,15.10
2023-03-26T14:43:51.705Z,14.90
2023-03-26T14:46:19.861Z,15.00
2023-03-26T14:49:07.081Z,14.90
2023-03-26T14:51:44.316Z,15.00
2023-03-26T14:54:14.594Z,15.10
2023-03-26T14:56:42.706Z,14.80
2023-03-26T14:59:16.613Z,14.70
2023-03-26T15:01:56.434Z,14.50
2023-03-26T15:04:31.119Z,14.50
2023-03-26T15:07:21.320Z,14.60
2023-03-26T15:10:11.206Z,14.50
2023-03-26T15:12:45.858Z,14.50
2023-03-26T15:15:19.984Z,14.50
2023-03-26T15:17:48.076Z,14.40
2023-03-26T15:20:44.497Z,14.60
2023-03-26T15:23:31.530Z,14.70
2023-03-26T15:26:05.578Z,14.40
2023-03-26T15:28:52.707Z,14.40
2023-03-26T15:31:40.315Z,14.60
2023-03-26T15:34:21.509Z,14.70
2023-03-26T15:37:04.966Z,14.70
2023-03-26T15:39:59.784Z,14.70
2023-03-26T15:42:50.303Z,14.80
2023-03-26T15:45:28.785Z,14.60
2023-03-26T15:48:12.614Z,14.30
2023-03-26T15:50:57.669Z,14.10
2023-03-26T15:53:37.038Z,14.20
2023-03-26T15:56:09.530Z,14.20
2023-03-26T15:58:38.110Z,14.10
2023-03-26T16:01:20.209Z,14.20
2023-03-26T16:03:49.392Z,14.20
2023-03-26T16:06:32.260Z,13.90
2023-03-26T16:09:18.986Z,13.80
2023-03-26T16:11:54.036Z,13.60
2023-03-26T16:14:25.183Z,13.50
2023-03-26T16:17:00.771Z,13.40
2023-03-26T16:19:37.966Z,13.20
2023-03-26T16:22:08.849Z,12.90
2023-03-26T16:24:39.008Z,12.70
2023-03-26T16:27:09.482Z,12.60
2023-03-26T16:29:57.608Z,12.40
2023-03-26T16:32:32.539Z,12.20
2023-03-26T16:35:06.250Z,12.00
2023-03-26T16:37:43.324Z,11.90
2023-03-26T16:40:17.743Z,11.80
2023-03-26T16:43:01.139Z,11.70
2023-03-26T16:45:47.965Z,11.60
2023-03-26T16:48:34.796Z,11.60
2023-03-26T16:51:16.225Z,11.50
2023-03-26T16:54:03.563Z,11.50
2023-03-26T16:56:34.781Z,11.50
2023-03-26T16:59:08.131Z,11.50
2023-03-26T17:01:52.106Z,11.40
2023-03-26T17:04:26.239Z,11.40
2023-03-26T17:07:03.197Z,11.30
2023-03-26T17:09:40.366Z,11.20
2023-03-26T17:12:22.292Z,11.20
2023-03-26T17:14:50.499Z,11.30
2023-03-26T17:17:40.533Z,11.30
2023-03-26T17:20:41.036Z,11.20
2023-03-26T17:23:27.625Z,11.20
2023-03-26T17:25:59.230Z,11.10
2023-03-26T17:28:39.118Z,11.00
2023-03-26T17:31:18.634Z,10.90
2023-03-26T17:33:46.812Z,10.90
2023-03-26T17:36:14.890Z,10.80
2023-03-26T17:38:48.933Z,10.70
2023-03-26T17:41:37.041Z,10.60
2023-03-26T17:44:25.012Z,10.40
2023-03-26T17:46:53.573Z,10.30
2023-03-26T17:49:28.464Z,10.20
2023-03-26T17:52:01.667Z,10.20
2023-03-26T17:54:35.131Z,10.30
2023-03-26T17:57:20.411Z,10.30
2023-03-26T17:59:49.052Z,10.40
2023-03-26T18:02:19.421Z,10.40
2023-03-26T18:04:49.680Z,10.40
2023-03-26T18:07:36.808Z,10.30
2023-03-26T18:10:18.199Z,10.30
2023-03-26T18:12:50.661Z,10.20
2023-03-26T18:15:31.316Z,10.20
2023-03-26T18:18:21.002Z,10.20
2023-03-26T18:20:50.481Z,10.10
2023-03-26T18:23:23.265Z,9.90
2023-03-26T18:25:58.290Z,9.80
2023-03-26T18:28:35.352Z,9.70
2023-03-26T18:31:29.601Z,9.60
2023-03-26T18:34:00.419Z,9.60
2023-03-26T18:36:31.502Z,9.40
2023-03-26T18:39:05.522Z,9.50
2023-03-26T18:41:35.450Z,9.40
2023-03-26T18:44:05.519Z,9.30
2023-03-26T18:46:34.350Z,9.30
2023-03-26T18:49:04.136Z,9.30
2023-03-26T18:51:36.405Z,9.20
2023-03-26T18:54:09.536Z,9.10
2023-03-26T18:56:38.513Z,9.00
2023-03-26T18:59:08.213Z,8.90
2023-03-26T19:01:37.783Z,8.90
2023-03-26T19:04:07.506Z,8.80
2023-03-26T19:06:39.452Z,8.80
2023-03-26T19:09:16.679Z,8.80
2023-03-26T19:11:57.119Z,8.80
2023-03-26T19:14:32.396Z,8.80
2023-03-26T19:17:01.824Z,8.80
2023-03-26T19:19:38.269Z,8.80
2023-03-26T19:22:07.281Z,8.70
2023-03-26T19:24:35.597Z,8.60
2023-03-26T19:27:04.302Z,8.60
2023-03-26T19:29:36.337Z,8.60
2023-03-26T19:32:06.477Z,8.50
2023-03-26T19:34:40.377Z,8.50
2023-03-26T19:37:19.350Z,8.40
2023-03-26T19:39:54.959Z,8.40
2023-03-26T19:42:26.251Z,8.40
2023-03-26T19:44:54.855Z,8.40
2023-03-26T19:47:35.238Z,8.40
2023-03-26T19:50:19.789Z,8.40
2023-03-26T19:52:47.913Z,8.30
2023-03-26T19:55:15.930Z,8.30
2023-03-26T19:57:44.405Z,8.30
2023-03-26T20:00:15.875Z,8.30
2023-03-26T20:02:44.912Z,8.20
2023-03-26T20:05:33.275Z,8.20
2023-03-26T20:08:02.952Z,8.20
2023-03-26T20:10:36.952Z,8.20
2023-03-26T20:13:05.143Z,8.20
2023-03-26T20:15:35.733Z,8.20
2023-03-26T20:18:04.865Z,8.20
2023-03-26T20:20:36.685Z,8.20
2023-03-26T20:23:07.721Z,8.20
2023-03-26T20:25:35.821Z,8.20
2023-03-26T20:28:07.207Z,8.10
2023-03-26T20:30:37.910Z,8.10
2023-03-26T20:33:12.708Z,8.10
2023-03-26T20:35:41.876Z,8.10
2023-03-26T20:38:10.763Z,8.10
2023-03-26T20:40:39.626Z,8.00
2023-03-26T20:43:12.120Z,8.00
2023-03-26T20:45:40.227Z,8.10
2023-03-26T20:48:09.775Z,8.10
2023-03-26T20:50:49.996Z,8.10
2023-03-26T20:53:20.204Z,8.10
2023-03-26T20:55:50.385Z,8.20
2023-03-26T20:58:30.717Z,8.20
2023-03-26T21:01:06.994Z,8.10
2023-03-26T21:03:35.037Z,8.10
2023-03-26T21:06:04.188Z,8.00
2023-03-26T21:08:35.555Z,8.00
2023-03-26T21:11:04.169Z,8.00
2023-03-26T21:13:36.410Z,8.00
2023-03-26T21:16:04.984Z,8.00
2023-03-26T21:18:33.362Z,8.00
2023-03-26T21:21:07.717Z,8.00
2023-03-26T21:23:47.124Z,7.90
2023-03-26T21:26:17.098Z,7.90
2023-03-26T21:28:47.861Z,7.90
2023-03-26T21:31:20.646Z,7.90
2023-03-26T21:33:49.550Z,7.90
2023-03-26T21:36:19.195Z,7.90
2023-03-26T21:38:47.458Z,7.90
2023-03-26T21:41:22.090Z,7.90
2023-03-26T21:43:50.508Z,7.90
2023-03-26T21:46:19.078Z,7.90
2023-03-26T21:48:49.927Z,7.90
2023-03-26T21:51:22.993Z,7.90
2023-03-26T21:53:51.369Z,7.90
2023-03-26T21:56:25.154Z,7.90
2023-03-26T21:59:02.912Z,8.00
2023-03-26T22:01:43.121Z,7.90
2023-03-26T22:04:23.668Z,7.90
2023-03-26T22:06:56.113Z,8.00
2023-03-26T22:09:35.616Z,8.00
2023-03-26T22:12:08.543Z,8.00
2023-03-26T22:14:40.538Z,8.00
2023-03-26T22:17:08.768Z,7.90
2023-03-26T22:19:37.216Z,7.90
2023-03-26T22:22:05.587Z,7.90
2023-03-26T22:24:34.169Z,7.90
2023-03-26T22:27:02.450Z,7.90
2023-03-26T22:29:30.619Z,7.90
2023-03-26T22:31:58.965Z,7.80
2023-03-26T22:34:27.282Z,7.90
2023-03-26T22:36:55.261Z,7.80
2023-03-26T22:39:23.367Z,7.90
2023-03-26T22:41:51.779Z,7.90
2023-03-26T22:44:20.661Z,7.90
2023-03-26T22:46:52.393Z,7.90
2023-03-26T22:49:20.614Z,7.90
2023-03-26T22:51:50.632Z,7.90
2023-03-26T22:54:21.759Z,7.90
2023-03-26T22:56:49.821Z,7.80
2023-03-26T22:59:17.805Z,7.70
2023-03-26T23:01:46.759Z,7.80
2023-03-26T23:04:30.735Z,7.80
2023-03-26T23:07:00.230Z,7.70
2023-03-26T23:09:28.255Z,7.60
2023-03-26T23:11:56.307Z,7.60
2023-03-26T23:14:24.544Z,7.60
2023-03-26T23:16:53.133Z,7.50
2023-03-26T23:19:21.195Z,7.50
2023-03-26T23:21:49.176Z,7.50
2023-03-26T23:24:25.497Z,7.50
2023-03-26T23:26:56.530Z,7.50
2023-03-26T23:29:24.549Z,7.40
2023-03-26T23:31:54.189Z,7.30
2023-03-26T23:34:22.761Z,7.30
2023-03-26T23:36:51.305Z,7.20
2023-03-26T23:39:20.104Z,7.20
2023-03-26T23:41:48.146Z,7.20
2023-03-26T23:44:18.283Z,7.20
2023-03-26T23:46:46.431Z,7.30
2023-03-26T23:49:14.987Z,7.30
2023-03-26T23:51:43.505Z,7.30
2023-03-26T23:54:12.980Z,7.20
2023-03-26T23:56:41.039Z,7.10
2023-03-26T23:59:09.640Z,7.10
